sensor_id;sensor_type;location;lat;lon;timestamp;P1;durP1;ratioP1;P2;durP2;ratioP2
17363;SDS011;8799;43.594;13.526;2022-09-01T00:01:45;8.47;;;3.53;;
17363;SDS011;8799;43.594;13.526;2022-09-01T00:04:16;3.70;;;3.03;;
17363;SDS011;8799;43.594;13.526;2022-09-01T01:00:40;5.97;;;3.20;;
17363;SDS011;8799;43.594;13.526;2022-09-01T01:03:09;3.90;;;3.17;;
17363;SDS011;8799;43.594;13.526;2022-09-01T01:05:39;5.10;;;3.43;;
17363;SDS011;8799;43.594;13.526;2022-09-01T01:08:13;6.77;;;3.90;;
17363;SDS011;8799;43.594;13.526;2022-09-01T01:10:45;5.30;;;3.60;;
17363;SDS011;8799;43.594;13.526;2022-09-01T01:13:14;5.37;;;3.90;;
17363;SDS011;8799;43.594;13.526;2022-09-01T01:15:44;6.87;;;3.97;;
17363;SDS011;8799;43.594;13.526;2022-09-01T01:18:13;6.70;;;3.73;;
17363;SDS011;8799;43.594;13.526;2022-09-01T01:20:41;5.57;;;3.60;;
17363;SDS011;8799;43.594;13.526;2022-09-01T01:23:29;5.17;;;3.43;;
17363;SDS011;8799;43.594;13.526;2022-09-01T01:26:04;5.97;;;3.33;;
17363;SDS011;8799;43.594;13.526;2022-09-01T01:28:34;7.47;;;4.17;;
17363;SDS011;8799;43.594;13.526;2022-09-01T01:41:10;5.50;;;3.93;;
17363;SDS011;8799;43.594;13.526;2022-09-01T01:43:39;7.67;;;4.00;;
17363;SDS011;8799;43.594;13.526;2022-09-01T01:46:08;7.27;;;4.57;;
17363;SDS011;8799;43.594;13.526;2022-09-01T01:48:37;6.10;;;3.93;;
17363;SDS011;8799;43.594;13.526;2022-09-01T01:51:06;6.47;;;4.43;;
17363;SDS011;8799;43.594;13.526;2022-09-01T01:53:34;6.83;;;3.87;;
17363;SDS011;8799;43.594;13.526;2022-09-01T01:56:04;5.63;;;4.13;;
17363;SDS011;8799;43.594;13.526;2022-09-01T01:58:34;5.70;;;4.20;;
17363;SDS011;8799;43.594;13.526;2022-09-01T02:01:02;9.57;;;4.27;;
17363;SDS011;8799;43.594;13.526;2022-09-01T02:03:31;7.10;;;4.57;;
17363;SDS011;8799;43.594;13.526;2022-09-01T02:06:02;6.87;;;4.57;;
17363;SDS011;8799;43.594;13.526;2022-09-01T02:08:32;8.37;;;4.13;;
17363;SDS011;8799;43.594;13.526;2022-09-01T02:11:00;6.73;;;3.87;;
17363;SDS011;8799;43.594;13.526;2022-09-01T02:13:29;7.90;;;4.53;;
17363;SDS011;8799;43.594;13.526;2022-09-01T02:15:59;7.50;;;4.20;;
17363;SDS011;8799;43.594;13.526;2022-09-01T02:18:32;7.63;;;4.10;;
17363;SDS011;8799;43.594;13.526;2022-09-01T02:21:02;6.80;;;4.17;;
17363;SDS011;8799;43.594;13.526;2022-09-01T02:23:35;11.30;;;3.90;;
17363;SDS011;8799;43.594;13.526;2022-09-01T02:26:03;4.60;;;3.30;;
17363;SDS011;8799;43.594;13.526;2022-09-01T02:28:36;4.37;;;3.27;;
17363;SDS011;8799;43.594;13.526;2022-09-01T02:31:09;5.30;;;3.63;;
17363;SDS011;8799;43.594;13.526;2022-09-01T02:33:37;7.50;;;3.57;;
17363;SDS011;8799;43.594;13.526;2022-09-01T02:36:12;5.87;;;3.53;;
17363;SDS011;8799;43.594;13.526;2022-09-01T02:38:41;6.30;;;3.33;;
17363;SDS011;8799;43.594;13.526;2022-09-01T02:41:11;7.03;;;3.53;;
17363;SDS011;8799;43.594;13.526;2022-09-01T02:43:39;4.77;;;3.43;;
17363;SDS011;8799;43.594;13.526;2022-09-01T02:46:09;7.60;;;3.53;;
17363;SDS011;8799;43.594;13.526;2022-09-01T02:48:37;6.17;;;3.57;;
17363;SDS011;8799;43.594;13.526;2022-09-01T02:51:07;5.40;;;3.60;;
17363;SDS011;8799;43.594;13.526;2022-09-01T02:53:37;4.87;;;3.50;;
17363;SDS011;8799;43.594;13.526;2022-09-01T02:56:08;4.87;;;3.57;;
17363;SDS011;8799;43.594;13.526;2022-09-01T02:58:38;6.57;;;3.60;;
17363;SDS011;8799;43.594;13.526;2022-09-01T03:01:12;5.70;;;3.83;;
17363;SDS011;8799;43.594;13.526;2022-09-01T03:03:43;6.53;;;3.57;;
17363;SDS011;8799;43.594;13.526;2022-09-01T03:06:11;5.50;;;4.17;;
17363;SDS011;8799;43.594;13.526;2022-09-01T03:08:38;5.57;;;4.10;;
17363;SDS011;8799;43.594;13.526;2022-09-01T03:11:06;7.13;;;3.60;;
17363;SDS011;8799;43.594;13.526;2022-09-01T03:13:35;9.23;;;4.27;;
17363;SDS011;8799;43.594;13.526;2022-09-01T03:16:05;5.53;;;4.03;;
17363;SDS011;8799;43.594;13.526;2022-09-01T03:18:35;6.33;;;3.87;;
17363;SDS011;8799;43.594;13.526;2022-09-01T03:21:04;7.60;;;3.63;;
17363;SDS011;8799;43.594;13.526;2022-09-01T03:23:32;6.00;;;3.33;;
17363;SDS011;8799;43.594;13.526;2022-09-01T03:26:00;6.23;;;3.20;;
17363;SDS011;8799;43.594;13.526;2022-09-01T03:28:28;6.53;;;3.60;;
17363;SDS011;8799;43.594;13.526;2022-09-01T03:30:56;5.83;;;3.77;;
17363;SDS011;8799;43.594;13.526;2022-09-01T03:33:25;5.23;;;3.70;;
17363;SDS011;8799;43.594;13.526;2022-09-01T03:35:56;5.00;;;3.23;;
17363;SDS011;8799;43.594;13.526;2022-09-01T03:38:24;6.27;;;3.90;;
17363;SDS011;8799;43.594;13.526;2022-09-01T03:40:53;7.03;;;4.10;;
17363;SDS011;8799;43.594;13.526;2022-09-01T03:43:25;5.77;;;3.60;;
17363;SDS011;8799;43.594;13.526;2022-09-01T03:45:53;6.93;;;3.67;;
17363;SDS011;8799;43.594;13.526;2022-09-01T03:48:23;5.00;;;3.77;;
17363;SDS011;8799;43.594;13.526;2022-09-01T03:50:52;10.40;;;3.63;;
17363;SDS011;8799;43.594;13.526;2022-09-01T03:53:28;4.97;;;3.60;;
17363;SDS011;8799;43.594;13.526;2022-09-01T03:55:59;4.73;;;3.43;;
17363;SDS011;8799;43.594;13.526;2022-09-01T03:58:28;4.80;;;3.30;;
17363;SDS011;8799;43.594;13.526;2022-09-01T04:00:58;5.07;;;3.80;;
17363;SDS011;8799;43.594;13.526;2022-09-01T04:03:28;5.47;;;4.07;;
17363;SDS011;8799;43.594;13.526;2022-09-01T04:05:58;6.47;;;4.17;;
17363;SDS011;8799;43.594;13.526;2022-09-01T04:08:28;7.80;;;3.67;;
17363;SDS011;8799;43.594;13.526;2022-09-01T04:10:57;6.53;;;4.33;;
17363;SDS011;8799;43.594;13.526;2022-09-01T04:13:28;5.93;;;4.07;;
17363;SDS011;8799;43.594;13.526;2022-09-01T04:15:57;7.90;;;4.37;;
17363;SDS011;8799;43.594;13.526;2022-09-01T04:18:25;7.50;;;4.17;;
17363;SDS011;8799;43.594;13.526;2022-09-01T04:20:52;6.70;;;3.80;;
17363;SDS011;8799;43.594;13.526;2022-09-01T04:23:22;6.73;;;3.80;;
17363;SDS011;8799;43.594;13.526;2022-09-01T04:25:55;8.63;;;3.77;;
17363;SDS011;8799;43.594;13.526;2022-09-01T04:28:33;6.53;;;3.70;;
17363;SDS011;8799;43.594;13.526;2022-09-01T04:31:02;6.77;;;3.93;;
17363;SDS011;8799;43.594;13.526;2022-09-01T04:33:34;5.10;;;3.70;;
17363;SDS011;8799;43.594;13.526;2022-09-01T04:36:04;5.63;;;4.03;;
17363;SDS011;8799;43.594;13.526;2022-09-01T04:38:39;6.63;;;4.23;;
17363;SDS011;8799;43.594;13.526;2022-09-01T04:41:08;6.80;;;4.50;;
17363;SDS011;8799;43.594;13.526;2022-09-01T04:43:42;9.77;;;4.90;;
17363;SDS011;8799;43.594;13.526;2022-09-01T04:46:12;6.53;;;4.43;;
17363;SDS011;8799;43.594;13.526;2022-09-01T04:48:39;6.03;;;4.10;;
17363;SDS011;8799;43.594;13.526;2022-09-01T04:51:09;7.93;;;4.53;;
17363;SDS011;8799;43.594;13.526;2022-09-01T04:53:37;5.17;;;3.53;;
17363;SDS011;8799;43.594;13.526;2022-09-01T04:56:06;5.23;;;3.40;;
17363;SDS011;8799;43.594;13.526;2022-09-01T04:58:36;5.17;;;3.60;;
17363;SDS011;8799;43.594;13.526;2022-09-01T05:01:11;6.43;;;3.77;;
17363;SDS011;8799;43.594;13.526;2022-09-01T05:03:40;5.27;;;3.97;;
17363;SDS011;8799;43.594;13.526;2022-09-01T05:06:11;8.73;;;3.90;;
17363;SDS011;8799;43.594;13.526;2022-09-01T05:08:39;5.43;;;3.73;;
17363;SDS011;8799;43.594;13.526;2022-09-01T05:11:09;5.60;;;4.00;;
17363;SDS011;8799;43.594;13.526;2022-09-01T05:13:41;6.40;;;3.93;;
17363;SDS011;8799;43.594;13.526;2022-09-01T05:16:10;7.30;;;3.70;;
17363;SDS011;8799;43.594;13.526;2022-09-01T05:18:40;5.80;;;3.73;;
17363;SDS011;8799;43.594;13.526;2022-09-01T05:21:10;8.43;;;3.83;;
17363;SDS011;8799;43.594;13.526;2022-09-01T05:23:39;6.60;;;3.40;;
17363;SDS011;8799;43.594;13.526;2022-09-01T05:26:12;8.07;;;3.40;;
17363;SDS011;8799;43.594;13.526;2022-09-01T05:28:41;6.87;;;2.90;;
17363;SDS011;8799;43.594;13.526;2022-09-01T05:31:08;10.83;;;3.53;;
17363;SDS011;8799;43.594;13.526;2022-09-01T05:33:37;11.27;;;3.70;;
17363;SDS011;8799;43.594;13.526;2022-09-01T05:36:10;7.27;;;2.53;;
17363;SDS011;8799;43.594;13.526;2022-09-01T05:38:38;7.50;;;2.33;;
17363;SDS011;8799;43.594;13.526;2022-09-01T05:41:07;7.57;;;2.03;;
17363;SDS011;8799;43.594;13.526;2022-09-01T05:43:40;12.77;;;2.43;;
17363;SDS011;8799;43.594;13.526;2022-09-01T05:46:11;7.20;;;2.20;;
17363;SDS011;8799;43.594;13.526;2022-09-01T05:48:43;14.43;;;2.60;;
17363;SDS011;8799;43.594;13.526;2022-09-01T05:51:14;11.30;;;2.20;;
17363;SDS011;8799;43.594;13.526;2022-09-01T05:53:44;11.90;;;2.70;;
17363;SDS011;8799;43.594;13.526;2022-09-01T05:56:15;6.13;;;2.30;;
17363;SDS011;8799;43.594;13.526;2022-09-01T05:58:45;9.03;;;2.43;;
17363;SDS011;8799;43.594;13.526;2022-09-01T06:01:17;12.23;;;2.20;;
17363;SDS011;8799;43.594;13.526;2022-09-01T06:03:47;5.40;;;2.23;;
17363;SDS011;8799;43.594;13.526;2022-09-01T06:06:19;6.93;;;2.10;;
17363;SDS011;8799;43.594;13.526;2022-09-01T06:08:47;8.57;;;2.53;;
17363;SDS011;8799;43.594;13.526;2022-09-01T06:11:15;7.43;;;2.30;;
17363;SDS011;8799;43.594;13.526;2022-09-01T06:13:45;9.80;;;2.20;;
17363;SDS011;8799;43.594;13.526;2022-09-01T06:16:13;9.83;;;2.07;;
17363;SDS011;8799;43.594;13.526;2022-09-01T06:18:42;5.10;;;1.57;;
17363;SDS011;8799;43.594;13.526;2022-09-01T06:21:10;6.00;;;1.90;;
17363;SDS011;8799;43.594;13.526;2022-09-01T06:23:39;5.20;;;1.23;;
17363;SDS011;8799;43.594;13.526;2022-09-01T06:26:14;10.10;;;1.73;;
17363;SDS011;8799;43.594;13.526;2022-09-01T06:28:45;6.10;;;1.33;;
17363;SDS011;8799;43.594;13.526;2022-09-01T06:31:18;4.60;;;1.17;;
17363;SDS011;8799;43.594;13.526;2022-09-01T06:33:48;4.53;;;1.60;;
17363;SDS011;8799;43.594;13.526;2022-09-01T06:36:18;6.73;;;1.50;;
17363;SDS011;8799;43.594;13.526;2022-09-01T06:38:46;5.90;;;1.40;;
17363;SDS011;8799;43.594;13.526;2022-09-01T06:41:14;8.73;;;1.77;;
17363;SDS011;8799;43.594;13.526;2022-09-01T06:43:45;8.67;;;1.73;;
17363;SDS011;8799;43.594;13.526;2022-09-01T06:46:14;8.67;;;1.90;;
17363;SDS011;8799;43.594;13.526;2022-09-01T06:48:42;7.83;;;1.80;;
17363;SDS011;8799;43.594;13.526;2022-09-01T06:51:12;7.20;;;2.13;;
17363;SDS011;8799;43.594;13.526;2022-09-01T06:53:41;4.73;;;1.77;;
17363;SDS011;8799;43.594;13.526;2022-09-01T06:56:09;4.97;;;1.40;;
17363;SDS011;8799;43.594;13.526;2022-09-01T06:58:37;7.93;;;1.90;;
17363;SDS011;8799;43.594;13.526;2022-09-01T07:01:08;5.53;;;1.80;;
17363;SDS011;8799;43.594;13.526;2022-09-01T07:03:40;6.33;;;1.60;;
17363;SDS011;8799;43.594;13.526;2022-09-01T07:06:08;7.77;;;1.90;;
17363;SDS011;8799;43.594;13.526;2022-09-01T07:08:36;10.77;;;2.50;;
17363;SDS011;8799;43.594;13.526;2022-09-01T07:11:05;9.50;;;2.83;;
17363;SDS011;8799;43.594;13.526;2022-09-01T07:13:34;8.73;;;2.20;;
17363;SDS011;8799;43.594;13.526;2022-09-01T07:16:02;7.47;;;1.90;;
17363;SDS011;8799;43.594;13.526;2022-09-01T07:18:32;8.87;;;2.30;;
17363;SDS011;8799;43.594;13.526;2022-09-01T07:20:59;5.50;;;2.13;;
17363;SDS011;8799;43.594;13.526;2022-09-01T07:23:31;8.40;;;2.03;;
17363;SDS011;8799;43.594;13.526;2022-09-01T07:25:59;9.03;;;2.07;;
17363;SDS011;8799;43.594;13.526;2022-09-01T07:28:33;6.47;;;1.73;;
17363;SDS011;8799;43.594;13.526;2022-09-01T07:31:02;8.70;;;1.90;;
17363;SDS011;8799;43.594;13.526;2022-09-01T07:33:32;12.30;;;2.03;;
17363;SDS011;8799;43.594;13.526;2022-09-01T07:36:00;6.97;;;1.70;;
17363;SDS011;8799;43.594;13.526;2022-09-01T07:38:29;10.83;;;2.77;;
17363;SDS011;8799;43.594;13.526;2022-09-01T07:40:56;7.50;;;1.90;;
17363;SDS011;8799;43.594;13.526;2022-09-01T07:43:28;8.03;;;2.13;;
17363;SDS011;8799;43.594;13.526;2022-09-01T07:45:57;11.63;;;2.00;;
17363;SDS011;8799;43.594;13.526;2022-09-01T07:48:25;12.20;;;2.50;;
17363;SDS011;8799;43.594;13.526;2022-09-01T07:50:55;7.80;;;1.97;;
17363;SDS011;8799;43.594;13.526;2022-09-01T07:53:24;9.37;;;2.10;;
17363;SDS011;8799;43.594;13.526;2022-09-01T07:55:54;10.17;;;2.47;;
17363;SDS011;8799;43.594;13.526;2022-09-01T07:58:22;5.57;;;2.00;;
17363;SDS011;8799;43.594;13.526;2022-09-01T08:00:52;8.67;;;2.33;;
17363;SDS011;8799;43.594;13.526;2022-09-01T08:03:22;5.03;;;2.10;;
17363;SDS011;8799;43.594;13.526;2022-09-01T08:05:50;8.23;;;2.33;;
17363;SDS011;8799;43.594;13.526;2022-09-01T08:08:23;6.90;;;2.30;;
17363;SDS011;8799;43.594;13.526;2022-09-01T08:10:51;8.90;;;1.80;;
17363;SDS011;8799;43.594;13.526;2022-09-01T08:13:20;9.93;;;2.60;;
17363;SDS011;8799;43.594;13.526;2022-09-01T08:15:48;5.70;;;1.60;;
17363;SDS011;8799;43.594;13.526;2022-09-01T08:18:16;6.23;;;1.57;;
17363;SDS011;8799;43.594;13.526;2022-09-01T08:20:44;4.17;;;1.47;;
17363;SDS011;8799;43.594;13.526;2022-09-01T08:23:12;4.37;;;1.40;;
17363;SDS011;8799;43.594;13.526;2022-09-01T08:25:44;4.93;;;1.57;;
17363;SDS011;8799;43.594;13.526;2022-09-01T08:28:13;4.70;;;1.50;;
17363;SDS011;8799;43.594;13.526;2022-09-01T08:30:43;3.87;;;1.57;;
17363;SDS011;8799;43.594;13.526;2022-09-01T08:33:12;3.57;;;1.00;;
17363;SDS011;8799;43.594;13.526;2022-09-01T08:35:41;8.40;;;1.30;;
17363;SDS011;8799;43.594;13.526;2022-09-01T08:38:11;3.60;;;1.30;;
17363;SDS011;8799;43.594;13.526;2022-09-01T08:40:39;3.40;;;1.07;;
17363;SDS011;8799;43.594;13.526;2022-09-01T08:43:12;4.17;;;1.50;;
17363;SDS011;8799;43.594;13.526;2022-09-01T08:45:46;5.83;;;1.40;;
17363;SDS011;8799;43.594;13.526;2022-09-01T08:48:18;1.60;;;1.10;;
17363;SDS011;8799;43.594;13.526;2022-09-01T08:50:50;5.33;;;1.20;;
17363;SDS011;8799;43.594;13.526;2022-09-01T08:53:21;3.97;;;1.10;;
17363;SDS011;8799;43.594;13.526;2022-09-01T08:55:54;2.67;;;1.10;;
17363;SDS011;8799;43.594;13.526;2022-09-01T08:58:26;1.13;;;0.90;;
17363;SDS011;8799;43.594;13.526;2022-09-01T09:00:58;2.93;;;1.20;;
17363;SDS011;8799;43.594;13.526;2022-09-01T09:03:31;2.27;;;1.23;;
17363;SDS011;8799;43.594;13.526;2022-09-01T09:06:11;1.97;;;0.77;;
17363;SDS011;8799;43.594;13.526;2022-09-01T09:08:47;3.60;;;1.20;;
17363;SDS011;8799;43.594;13.526;2022-09-01T09:14:24;3.50;;;1.27;;
17363;SDS011;8799;43.594;13.526;2022-09-01T09:17:07;3.93;;;0.93;;
17363;SDS011;8799;43.594;13.526;2022-09-01T09:19:36;4.07;;;1.10;;
17363;SDS011;8799;43.594;13.526;2022-09-01T09:22:07;2.10;;;1.00;;
17363;SDS011;8799;43.594;13.526;2022-09-01T09:24:36;1.70;;;1.30;;
17363;SDS011;8799;43.594;13.526;2022-09-01T09:27:18;1.90;;;1.10;;
17363;SDS011;8799;43.594;13.526;2022-09-01T09:29:49;2.43;;;1.40;;
17363;SDS011;8799;43.594;13.526;2022-09-01T09:32:19;3.13;;;1.10;;
17363;SDS011;8799;43.594;13.526;2022-09-01T09:34:48;2.40;;;1.20;;
17363;SDS011;8799;43.594;13.526;2022-09-01T09:37:24;1.90;;;1.30;;
17363;SDS011;8799;43.594;13.526;2022-09-01T09:40:01;1.57;;;1.10;;
17363;SDS011;8799;43.594;13.526;2022-09-01T09:42:33;2.53;;;1.40;;
17363;SDS011;8799;43.594;13.526;2022-09-01T09:45:06;3.13;;;1.40;;
17363;SDS011;8799;43.594;13.526;2022-09-01T09:47:47;1.50;;;1.20;;
17363;SDS011;8799;43.594;13.526;2022-09-01T09:50:17;3.57;;;1.60;;
17363;SDS011;8799;43.594;13.526;2022-09-01T09:52:47;1.83;;;1.37;;
17363;SDS011;8799;43.594;13.526;2022-09-01T09:55:26;3.93;;;1.30;;
17363;SDS011;8799;43.594;13.526;2022-09-01T09:57:55;2.27;;;1.27;;
17363;SDS011;8799;43.594;13.526;2022-09-01T10:00:28;4.97;;;1.03;;
17363;SDS011;8799;43.594;13.526;2022-09-01T10:02:59;2.30;;;1.40;;
17363;SDS011;8799;43.594;13.526;2022-09-01T10:05:32;4.83;;;1.80;;
17363;SDS011;8799;43.594;13.526;2022-09-01T10:08:03;4.97;;;1.60;;
17363;SDS011;8799;43.594;13.526;2022-09-01T10:10:36;8.50;;;1.80;;
17363;SDS011;8799;43.594;13.526;2022-09-01T10:13:10;4.50;;;1.40;;
17363;SDS011;8799;43.594;13.526;2022-09-01T10:16:04;4.00;;;1.33;;
17363;SDS011;8799;43.594;13.526;2022-09-01T10:18:35;6.00;;;1.30;;
17363;SDS011;8799;43.594;13.526;2022-09-01T10:21:07;2.67;;;1.60;;
17363;SDS011;8799;43.594;13.526;2022-09-01T10:23:36;3.77;;;1.07;;
17363;SDS011;8799;43.594;13.526;2022-09-01T10:26:06;2.67;;;1.17;;
17363;SDS011;8799;43.594;13.526;2022-09-01T10:28:40;2.77;;;1.20;;
17363;SDS011;8799;43.594;13.526;2022-09-01T10:31:14;1.97;;;1.30;;
17363;SDS011;8799;43.594;13.526;2022-09-01T10:33:43;7.20;;;1.17;;
17363;SDS011;8799;43.594;13.526;2022-09-01T10:36:11;2.37;;;1.47;;
17363;SDS011;8799;43.594;13.526;2022-09-01T10:38:40;3.83;;;1.33;;
17363;SDS011;8799;43.594;13.526;2022-09-01T10:41:09;2.27;;;1.10;;
17363;SDS011;8799;43.594;13.526;2022-09-01T10:44:06;2.77;;;1.00;;
17363;SDS011;8799;43.594;13.526;2022-09-01T10:49:19;1.10;;;0.90;;
17363;SDS011;8799;43.594;13.526;2022-09-01T10:52:08;1.87;;;1.00;;
17363;SDS011;8799;43.594;13.526;2022-09-01T10:54:55;1.40;;;0.90;;
17363;SDS011;8799;43.594;13.526;2022-09-01T10:57:36;2.47;;;0.90;;
17363;SDS011;8799;43.594;13.526;2022-09-01T11:09:16;4.20;;;0.70;;
17363;SDS011;8799;43.594;13.526;2022-09-01T11:11:54;1.20;;;0.80;;
17363;SDS011;8799;43.594;13.526;2022-09-01T11:14:51;3.07;;;1.10;;
17363;SDS011;8799;43.594;13.526;2022-09-01T11:17:21;2.43;;;0.80;;
17363;SDS011;8799;43.594;13.526;2022-09-01T11:19:55;1.37;;;0.87;;
17363;SDS011;8799;43.594;13.526;2022-09-01T11:22:32;0.70;;;0.70;;
17363;SDS011;8799;43.594;13.526;2022-09-01T11:28:04;5.93;;;1.20;;
17363;SDS011;8799;43.594;13.526;2022-09-01T11:30:39;0.97;;;0.97;;
17363;SDS011;8799;43.594;13.526;2022-09-01T11:33:26;1.07;;;0.83;;
17363;SDS011;8799;43.594;13.526;2022-09-01T11:36:04;2.23;;;1.07;;
17363;SDS011;8799;43.594;13.526;2022-09-01T11:38:44;2.13;;;0.80;;
17363;SDS011;8799;43.594;13.526;2022-09-01T11:41:21;1.13;;;1.03;;
17363;SDS011;8799;43.594;13.526;2022-09-01T11:43:50;1.67;;;1.03;;
17363;SDS011;8799;43.594;13.526;2022-09-01T11:46:24;2.37;;;0.97;;
17363;SDS011;8799;43.594;13.526;2022-09-01T11:48:55;2.43;;;1.30;;
17363;SDS011;8799;43.594;13.526;2022-09-01T11:51:24;3.23;;;1.00;;
17363;SDS011;8799;43.594;13.526;2022-09-01T11:53:54;1.60;;;1.00;;
17363;SDS011;8799;43.594;13.526;2022-09-01T11:56:26;2.23;;;1.20;;
17363;SDS011;8799;43.594;13.526;2022-09-01T11:58:54;3.50;;;1.13;;
17363;SDS011;8799;43.594;13.526;2022-09-01T12:01:22;1.03;;;0.93;;
17363;SDS011;8799;43.594;13.526;2022-09-01T12:03:57;2.67;;;1.20;;
17363;SDS011;8799;43.594;13.526;2022-09-01T12:06:49;1.10;;;1.00;;
17363;SDS011;8799;43.594;13.526;2022-09-01T12:09:23;2.43;;;1.10;;
17363;SDS011;8799;43.594;13.526;2022-09-01T12:11:59;2.67;;;1.30;;
17363;SDS011;8799;43.594;13.526;2022-09-01T12:14:26;2.47;;;1.27;;
17363;SDS011;8799;43.594;13.526;2022-09-01T12:16:56;1.97;;;1.17;;
17363;SDS011;8799;43.594;13.526;2022-09-01T12:19:27;2.27;;;1.37;;
17363;SDS011;8799;43.594;13.526;2022-09-01T12:21:59;1.43;;;1.03;;
17363;SDS011;8799;43.594;13.526;2022-09-01T12:24:34;1.50;;;1.30;;
17363;SDS011;8799;43.594;13.526;2022-09-01T12:27:02;1.80;;;1.13;;
17363;SDS011;8799;43.594;13.526;2022-09-01T12:29:31;3.23;;;1.30;;
17363;SDS011;8799;43.594;13.526;2022-09-01T12:31:59;2.67;;;1.40;;
17363;SDS011;8799;43.594;13.526;2022-09-01T12:34:35;2.27;;;1.40;;
17363;SDS011;8799;43.594;13.526;2022-09-01T12:37:07;2.77;;;1.43;;
17363;SDS011;8799;43.594;13.526;2022-09-01T12:39:40;3.53;;;1.70;;
17363;SDS011;8799;43.594;13.526;2022-09-01T12:42:10;2.83;;;1.83;;
17363;SDS011;8799;43.594;13.526;2022-09-01T12:44:50;2.60;;;1.70;;
17363;SDS011;8799;43.594;13.526;2022-09-01T12:53:17;2.57;;;1.17;;
17363;SDS011;8799;43.594;13.526;2022-09-01T12:56:03;3.33;;;1.60;;
17363;SDS011;8799;43.594;13.526;2022-09-01T13:01:23;1.97;;;1.43;;
17363;SDS011;8799;43.594;13.526;2022-09-01T13:04:06;3.17;;;1.70;;
17363;SDS011;8799;43.594;13.526;2022-09-01T13:07:02;4.93;;;2.00;;
17363;SDS011;8799;43.594;13.526;2022-09-01T13:09:32;2.43;;;1.57;;
17363;SDS011;8799;43.594;13.526;2022-09-01T13:12:18;3.17;;;1.70;;
17363;SDS011;8799;43.594;13.526;2022-09-01T13:14:47;3.20;;;1.70;;
17363;SDS011;8799;43.594;13.526;2022-09-01T13:17:16;6.97;;;1.70;;
17363;SDS011;8799;43.594;13.526;2022-09-01T13:19:43;2.80;;;1.67;;
17363;SDS011;8799;43.594;13.526;2022-09-01T13:22:11;4.37;;;1.90;;
17363;SDS011;8799;43.594;13.526;2022-09-01T13:24:39;3.03;;;1.83;;
17363;SDS011;8799;43.594;13.526;2022-09-01T13:27:08;5.60;;;2.07;;
17363;SDS011;8799;43.594;13.526;2022-09-01T13:29:39;4.17;;;1.87;;
17363;SDS011;8799;43.594;13.526;2022-09-01T13:32:09;5.10;;;1.93;;
17363;SDS011;8799;43.594;13.526;2022-09-01T13:34:37;1.60;;;1.50;;
17363;SDS011;8799;43.594;13.526;2022-09-01T13:37:05;2.93;;;1.73;;
17363;SDS011;8799;43.594;13.526;2022-09-01T13:39:33;4.27;;;1.90;;
17363;SDS011;8799;43.594;13.526;2022-09-01T13:42:00;3.00;;;1.90;;
17363;SDS011;8799;43.594;13.526;2022-09-01T13:44:30;2.90;;;1.70;;
17363;SDS011;8799;43.594;13.526;2022-09-01T13:46:58;6.57;;;1.87;;
17363;SDS011;8799;43.594;13.526;2022-09-01T13:49:25;2.73;;;1.70;;
17363;SDS011;8799;43.594;13.526;2022-09-01T13:51:53;4.27;;;1.83;;
17363;SDS011;8799;43.594;13.526;2022-09-01T13:54:21;3.03;;;2.33;;
17363;SDS011;8799;43.594;13.526;2022-09-01T13:56:49;3.57;;;1.97;;
17363;SDS011;8799;43.594;13.526;2022-09-01T13:59:21;5.03;;;1.90;;
17363;SDS011;8799;43.594;13.526;2022-09-01T14:01:51;7.60;;;2.00;;
17363;SDS011;8799;43.594;13.526;2022-09-01T14:04:18;3.57;;;1.63;;
17363;SDS011;8799;43.594;13.526;2022-09-01T14:06:47;4.70;;;2.07;;
17363;SDS011;8799;43.594;13.526;2022-09-01T14:09:14;2.80;;;1.40;;
17363;SDS011;8799;43.594;13.526;2022-09-01T14:11:43;1.67;;;1.43;;
17363;SDS011;8799;43.594;13.526;2022-09-01T14:14:11;2.80;;;1.70;;
17363;SDS011;8799;43.594;13.526;2022-09-01T14:16:41;4.43;;;2.00;;
17363;SDS011;8799;43.594;13.526;2022-09-01T14:19:11;2.43;;;1.60;;
17363;SDS011;8799;43.594;13.526;2022-09-01T14:21:40;6.00;;;1.83;;
17363;SDS011;8799;43.594;13.526;2022-09-01T14:24:08;3.03;;;1.80;;
17363;SDS011;8799;43.594;13.526;2022-09-01T14:26:36;4.57;;;1.77;;
17363;SDS011;8799;43.594;13.526;2022-09-01T14:29:06;4.03;;;1.70;;
17363;SDS011;8799;43.594;13.526;2022-09-01T14:31:33;4.80;;;1.97;;
17363;SDS011;8799;43.594;13.526;2022-09-01T14:34:01;5.40;;;1.93;;
17363;SDS011;8799;43.594;13.526;2022-09-01T14:36:31;2.60;;;1.70;;
17363;SDS011;8799;43.594;13.526;2022-09-01T14:38:59;1.97;;;1.60;;
17363;SDS011;8799;43.594;13.526;2022-09-01T14:41:27;3.47;;;1.60;;
17363;SDS011;8799;43.594;13.526;2022-09-01T14:43:57;2.97;;;1.40;;
17363;SDS011;8799;43.594;13.526;2022-09-01T14:46:26;3.17;;;1.50;;
17363;SDS011;8799;43.594;13.526;2022-09-01T14:48:54;2.73;;;1.50;;
17363;SDS011;8799;43.594;13.526;2022-09-01T14:51:23;4.37;;;1.67;;
17363;SDS011;8799;43.594;13.526;2022-09-01T14:53:54;10.23;;;1.83;;
17363;SDS011;8799;43.594;13.526;2022-09-01T14:56:22;9.57;;;1.80;;
17363;SDS011;8799;43.594;13.526;2022-09-01T14:58:50;6.67;;;1.97;;
17363;SDS011;8799;43.594;13.526;2022-09-01T15:01:23;8.10;;;1.63;;
17363;SDS011;8799;43.594;13.526;2022-09-01T15:03:50;4.70;;;1.77;;
17363;SDS011;8799;43.594;13.526;2022-09-01T15:06:19;4.60;;;1.87;;
17363;SDS011;8799;43.594;13.526;2022-09-01T15:08:48;2.63;;;1.70;;
17363;SDS011;8799;43.594;13.526;2022-09-01T15:11:18;3.53;;;1.40;;
17363;SDS011;8799;43.594;13.526;2022-09-01T15:13:46;4.13;;;1.60;;
17363;SDS011;8799;43.594;13.526;2022-09-01T15:16:17;4.90;;;1.73;;
17363;SDS011;8799;43.594;13.526;2022-09-01T15:18:47;2.93;;;1.53;;
17363;SDS011;8799;43.594;13.526;2022-09-01T15:21:19;1.53;;;1.27;;
17363;SDS011;8799;43.594;13.526;2022-09-01T15:23:49;5.33;;;1.90;;
17363;SDS011;8799;43.594;13.526;2022-09-01T15:26:22;6.43;;;1.90;;
17363;SDS011;8799;43.594;13.526;2022-09-01T15:28:50;3.37;;;1.87;;
17363;SDS011;8799;43.594;13.526;2022-09-01T15:31:18;5.23;;;1.53;;
17363;SDS011;8799;43.594;13.526;2022-09-01T15:33:48;5.17;;;1.60;;
17363;SDS011;8799;43.594;13.526;2022-09-01T15:36:16;5.77;;;2.17;;
17363;SDS011;8799;43.594;13.526;2022-09-01T15:38:47;6.07;;;1.77;;
17363;SDS011;8799;43.594;13.526;2022-09-01T15:41:15;3.07;;;1.80;;
17363;SDS011;8799;43.594;13.526;2022-09-01T15:43:46;4.07;;;1.50;;
17363;SDS011;8799;43.594;13.526;2022-09-01T15:46:14;6.10;;;1.70;;
17363;SDS011;8799;43.594;13.526;2022-09-01T15:48:42;3.57;;;1.53;;
17363;SDS011;8799;43.594;13.526;2022-09-01T15:51:25;5.33;;;1.73;;
17363;SDS011;8799;43.594;13.526;2022-09-01T15:53:56;4.50;;;1.50;;
17363;SDS011;8799;43.594;13.526;2022-09-01T15:56:25;3.17;;;1.83;;
17363;SDS011;8799;43.594;13.526;2022-09-01T15:58:56;7.23;;;1.70;;
17363;SDS011;8799;43.594;13.526;2022-09-01T16:01:25;3.73;;;1.53;;
17363;SDS011;8799;43.594;13.526;2022-09-01T16:03:54;5.47;;;1.77;;
17363;SDS011;8799;43.594;13.526;2022-09-01T16:06:24;8.67;;;1.80;;
17363;SDS011;8799;43.594;13.526;2022-09-01T16:08:52;6.87;;;1.80;;
17363;SDS011;8799;43.594;13.526;2022-09-01T16:11:20;4.27;;;1.63;;
17363;SDS011;8799;43.594;13.526;2022-09-01T16:13:49;5.30;;;2.00;;
17363;SDS011;8799;43.594;13.526;2022-09-01T16:16:33;5.93;;;1.70;;
17363;SDS011;8799;43.594;13.526;2022-09-01T16:19:11;5.00;;;1.87;;
17363;SDS011;8799;43.594;13.526;2022-09-01T16:21:51;3.83;;;1.50;;
17363;SDS011;8799;43.594;13.526;2022-09-01T16:24:27;3.43;;;1.47;;
17363;SDS011;8799;43.594;13.526;2022-09-01T16:26:55;1.83;;;1.40;;
17363;SDS011;8799;43.594;13.526;2022-09-01T16:29:26;4.73;;;1.60;;
17363;SDS011;8799;43.594;13.526;2022-09-01T16:32:02;4.23;;;1.63;;
17363;SDS011;8799;43.594;13.526;2022-09-01T16:34:30;1.87;;;1.33;;
17363;SDS011;8799;43.594;13.526;2022-09-01T16:37:00;2.90;;;1.70;;
17363;SDS011;8799;43.594;13.526;2022-09-01T16:39:37;4.00;;;1.60;;
17363;SDS011;8799;43.594;13.526;2022-09-01T16:42:13;5.73;;;1.63;;